createdAt,value
2019-05-15T00:01:00.578Z,52.80
2019-05-15T00:03:28.802Z,52.80
2019-05-15T00:05:58.259Z,52.90
2019-05-15T00:08:26.068Z,52.90
2019-05-15T00:10:53.643Z,52.90
2019-05-15T00:13:22.275Z,53.00
2019-05-15T00:15:49.753Z,53.30
2019-05-15T00:18:18.539Z,53.30
2019-05-15T00:20:49.377Z,53.50
2019-05-15T00:23:18.178Z,53.70
2019-05-15T00:25:48.593Z,53.80
2019-05-15T00:28:15.692Z,54.00
2019-05-15T00:30:43.369Z,54.30
2019-05-15T00:33:11.027Z,54.40
2019-05-15T00:35:39.397Z,54.50
2019-05-15T00:38:09.281Z,54.70
2019-05-15T00:40:39.186Z,54.90
2019-05-15T00:43:08.614Z,55.00
2019-05-15T00:45:35.413Z,55.00
2019-05-15T00:48:02.988Z,55.00
2019-05-15T00:50:30.512Z,55.20
2019-05-15T00:52:58.993Z,55.20
2019-05-15T00:55:29.143Z,55.20
2019-05-15T00:57:58.875Z,55.30
2019-05-15T01:00:44.334Z,55.40
2019-05-15T01:03:13.078Z,55.50
2019-05-15T01:05:40.783Z,55.50
2019-05-15T01:08:08.408Z,55.70
2019-05-15T01:10:38.350Z,55.70
2019-05-15T01:13:05.375Z,55.80
2019-05-15T01:15:33.517Z,56.00
2019-05-15T01:18:01.040Z,56.00
2019-05-15T01:20:29.234Z,56.20
2019-05-15T01:22:59.039Z,56.30
2019-05-15T01:25:29.622Z,56.30
2019-05-15T01:27:58.360Z,56.50
2019-05-15T01:30:25.904Z,56.40
2019-05-15T01:32:53.336Z,56.50
2019-05-15T01:35:20.595Z,56.50
2019-05-15T01:37:48.414Z,56.50
2019-05-15T01:40:18.048Z,56.60
2019-05-15T01:42:45.385Z,56.50
2019-05-15T01:45:13.011Z,56.60
2019-05-15T01:47:40.525Z,56.90
2019-05-15T01:50:09.211Z,57.10
2019-05-15T01:52:39.402Z,57.00
2019-05-15T01:55:09.103Z,57.10
2019-05-15T01:57:38.335Z,57.20
2019-05-15T02:00:08.740Z,57.30
2019-05-15T02:02:38.944Z,57.50
2019-05-15T02:05:08.513Z,57.50
2019-05-15T02:07:38.743Z,57.60
2019-05-15T02:10:06.017Z,57.80
2019-05-15T02:12:33.544Z,57.90
2019-05-15T02:15:00.971Z,58.00
2019-05-15T02:17:28.611Z,58.20
2019-05-15T02:19:55.890Z,58.40
2019-05-15T02:22:23.197Z,58.40
2019-05-15T02:24:50.641Z,58.60
2019-05-15T02:27:18.694Z,58.80
2019-05-15T02:29:46.557Z,58.90
2019-05-15T02:32:14.000Z,59.00
2019-05-15T02:34:41.301Z,59.10
2019-05-15T02:37:29.402Z,59.10
2019-05-15T02:39:58.945Z,59.10
2019-05-15T02:42:29.007Z,59.10
2019-05-15T02:44:58.512Z,59.20
2019-05-15T02:47:25.292Z,59.40
2019-05-15T02:49:52.775Z,59.40
2019-05-15T02:52:20.358Z,59.50
2019-05-15T02:54:49.811Z,59.50
2019-05-15T02:57:19.228Z,59.70
2019-05-15T02:59:49.519Z,59.90
2019-05-15T03:02:15.600Z,59.90
2019-05-15T03:04:43.191Z,59.90
2019-05-15T03:07:10.651Z,60.10
2019-05-15T03:09:40.005Z,60.20
2019-05-15T03:12:09.068Z,60.80
2019-05-15T03:14:59.557Z,60.40
2019-05-15T03:17:25.774Z,60.50
2019-05-15T03:19:53.525Z,60.50
2019-05-15T03:22:21.198Z,60.70
2019-05-15T03:24:50.206Z,60.90
2019-05-15T03:27:19.699Z,61.10
2019-05-15T03:29:49.389Z,61.10
2019-05-15T03:32:27.777Z,61.40
2019-05-15T03:34:54.685Z,61.50
2019-05-15T03:37:21.444Z,61.70
2019-05-15T03:39:48.479Z,62.00
2019-05-15T03:42:14.963Z,62.00
2019-05-15T03:44:42.389Z,61.80
2019-05-15T03:47:10.282Z,62.30
2019-05-15T03:49:40.090Z,62.40
2019-05-15T03:52:09.995Z,62.60
2019-05-15T03:54:39.188Z,62.80
2019-05-15T03:57:09.815Z,62.90
2019-05-15T03:59:40.069Z,62.90
2019-05-15T04:02:08.647Z,63.00
2019-05-15T04:04:38.873Z,63.00
2019-05-15T04:07:09.243Z,63.20
2019-05-15T04:09:38.555Z,63.30
2019-05-15T04:12:05.199Z,63.40
2019-05-15T04:14:33.621Z,63.40
2019-05-15T04:17:01.191Z,64.20
2019-05-15T04:19:29.709Z,63.70
2019-05-15T04:22:00.075Z,63.80
2019-05-15T04:24:30.082Z,64.00
2019-05-15T04:26:59.822Z,64.10
2019-05-15T04:29:28.935Z,64.30
2019-05-15T04:32:02.591Z,64.60
2019-05-15T04:34:28.802Z,64.80
2019-05-15T04:36:55.100Z,65.20
2019-05-15T04:39:22.854Z,65.30
2019-05-15T04:41:50.416Z,65.50
2019-05-15T04:44:19.288Z,65.60
2019-05-15T04:46:49.688Z,65.60
2019-05-15T04:49:19.078Z,65.80
2019-05-15T04:51:45.595Z,66.00
2019-05-15T04:54:13.095Z,66.10
2019-05-15T04:56:40.776Z,66.40
2019-05-15T04:59:10.254Z,66.50
2019-05-15T05:01:41.318Z,66.70
2019-05-15T05:04:09.380Z,66.80
2019-05-15T05:06:38.823Z,67.00
2019-05-15T05:09:09.175Z,67.10
2019-05-15T05:11:38.409Z,67.30
2019-05-15T05:14:08.274Z,67.40
2019-05-15T05:16:35.079Z,67.40
2019-05-15T05:19:02.599Z,67.50
2019-05-15T05:21:30.245Z,67.50
2019-05-15T05:23:58.565Z,67.70
2019-05-15T05:26:26.098Z,67.60
2019-05-15T05:28:53.694Z,67.50
2019-05-15T05:31:21.302Z,67.70
2019-05-15T05:33:48.831Z,67.70
2019-05-15T05:36:18.561Z,67.70
2019-05-15T05:38:46.078Z,67.70
2019-05-15T05:41:13.559Z,67.70
2019-05-15T05:43:41.134Z,67.50
2019-05-15T05:46:09.315Z,67.50
2019-05-15T05:48:38.352Z,67.50
2019-05-15T05:51:06.023Z,67.30
2019-05-15T05:53:33.401Z,67.40
2019-05-15T05:56:00.835Z,67.10
2019-05-15T05:58:29.718Z,67.00
2019-05-15T06:00:58.621Z,66.80
2019-05-15T06:03:28.093Z,66.60
2019-05-15T06:05:55.479Z,66.10
2019-05-15T06:08:22.924Z,64.80
2019-05-15T06:10:50.291Z,64.40
2019-05-15T06:13:18.563Z,63.80
2019-05-15T06:15:48.470Z,63.00
2019-05-15T06:18:15.717Z,62.60
2019-05-15T06:20:43.193Z,62.00
2019-05-15T06:23:10.953Z,61.70
2019-05-15T06:25:39.622Z,61.30
2019-05-15T06:28:08.999Z,60.70
2019-05-15T06:30:39.333Z,59.80
2019-05-15T06:33:12.857Z,59.70
2019-05-15T06:35:39.193Z,59.70
2019-05-15T06:38:08.389Z,59.30
2019-05-15T06:40:35.637Z,59.10
2019-05-15T06:43:03.607Z,58.70
2019-05-15T06:45:31.216Z,58.10
2019-05-15T06:48:01.444Z,57.90
2019-05-15T06:50:38.050Z,57.50
2019-05-15T06:53:09.958Z,57.20
2019-05-15T06:55:35.309Z,56.50
2019-05-15T06:58:03.145Z,56.50
2019-05-15T07:00:30.706Z,54.30
2019-05-15T07:02:58.461Z,53.50
2019-05-15T07:05:26.048Z,52.70
2019-05-15T07:07:53.616Z,51.90
2019-05-15T07:10:21.464Z,51.70
2019-05-15T07:12:51.436Z,50.80
2019-05-15T07:15:18.366Z,50.10
2019-05-15T07:17:48.410Z,50.10
2019-05-15T07:20:18.475Z,49.20
2019-05-15T07:22:45.635Z,48.00
2019-05-15T07:25:13.947Z,46.90
2019-05-15T07:27:41.454Z,47.20
2019-05-15T07:30:11.896Z,46.90
2019-05-15T07:32:39.553Z,46.50
2019-05-15T07:35:08.529Z,46.70
2019-05-15T07:37:38.829Z,46.20
2019-05-15T07:40:08.372Z,45.20
2019-05-15T07:42:38.662Z,45.60
2019-05-15T07:45:08.227Z,44.70
2019-05-15T07:47:38.974Z,43.90
2019-05-15T07:50:08.926Z,42.90
2019-05-15T07:52:39.405Z,42.70
2019-05-15T07:55:09.511Z,43.10
2019-05-15T07:57:39.404Z,42.10
2019-05-15T08:00:08.858Z,41.30
2019-05-15T08:02:38.303Z,40.80
2019-05-15T08:05:08.457Z,40.60
2019-05-15T08:07:39.113Z,40.30
2019-05-15T08:10:08.744Z,40.20
2019-05-15T08:12:39.637Z,39.70
2019-05-15T08:15:10.031Z,39.80
2019-05-15T08:18:03.949Z,40.40
2019-05-15T08:20:19.386Z,39.90
2019-05-15T08:22:48.870Z,39.70
2019-05-15T08:25:31.026Z,39.30
2019-05-15T08:27:48.466Z,39.40
2019-05-15T08:30:18.392Z,39.00
2019-05-15T08:32:49.113Z,39.30
2019-05-15T08:35:18.924Z,38.70
2019-05-15T08:37:45.696Z,38.80
2019-05-15T08:40:13.817Z,38.80
2019-05-15T08:42:42.165Z,39.00
2019-05-15T08:45:12.930Z,39.10
2019-05-15T08:47:40.639Z,38.90
2019-05-15T08:50:10.293Z,38.30
2019-05-15T08:52:39.485Z,38.40
2019-05-15T08:55:08.594Z,38.30
2019-05-15T08:57:38.575Z,38.60
2019-05-15T09:00:09.295Z,38.10
2019-05-15T09:02:38.240Z,38.30
2019-05-15T09:05:08.608Z,38.30
2019-05-15T09:07:38.361Z,38.50
2019-05-15T09:10:09.051Z,38.50
2019-05-15T09:12:38.812Z,37.60
2019-05-15T09:15:13.210Z,37.60
2019-05-15T09:17:40.747Z,37.70
2019-05-15T09:20:10.789Z,37.70
2019-05-15T09:22:38.509Z,37.20
2019-05-15T09:25:08.762Z,37.10
2019-05-15T09:27:38.307Z,36.90
2019-05-15T09:30:08.721Z,37.10
2019-05-15T09:32:39.182Z,36.80
2019-05-15T09:35:08.402Z,36.70
2019-05-15T09:40:37.784Z,36.50
2019-05-15T09:42:52.772Z,36.70
2019-05-15T09:45:20.459Z,36.00
2019-05-15T09:47:48.452Z,35.90
2019-05-15T09:50:19.119Z,35.60
2019-05-15T09:52:45.911Z,35.50
2019-05-15T09:55:13.573Z,34.70
2019-05-15T09:57:41.025Z,35.00
2019-05-15T10:00:09.173Z,35.30
2019-05-15T10:02:39.517Z,35.20
2019-05-15T10:05:10.904Z,35.10
2019-05-15T10:07:40.369Z,34.50
2019-05-15T10:10:08.824Z,34.50
2019-05-15T10:12:40.074Z,34.40
2019-05-15T10:15:11.128Z,34.50
2019-05-15T10:17:38.701Z,34.90
2019-05-15T10:20:09.131Z,34.00
2019-05-15T10:22:37.126Z,33.50
2019-05-15T10:25:04.827Z,33.20
2019-05-15T10:27:32.218Z,33.20
2019-05-15T10:29:59.726Z,32.70
2019-05-15T10:32:29.019Z,32.80
2019-05-15T10:34:58.482Z,33.50
2019-05-15T10:37:28.270Z,32.70
2019-05-15T10:39:55.163Z,32.00
2019-05-15T10:42:22.811Z,31.80
2019-05-15T10:44:50.442Z,31.80
2019-05-15T10:47:17.985Z,31.40
2019-05-15T10:49:45.406Z,31.40
2019-05-15T10:52:12.991Z,31.30
2019-05-15T10:54:43.130Z,31.20
2019-05-15T10:57:30.175Z,31.60
2019-05-15T10:59:58.439Z,31.40
2019-05-15T11:02:25.987Z,31.50
2019-05-15T11:04:53.589Z,31.40
2019-05-15T11:07:21.090Z,31.50
2019-05-15T11:09:49.084Z,31.60
2019-05-15T11:12:18.886Z,31.30
2019-05-15T11:14:46.055Z,31.30
2019-05-15T11:17:13.384Z,31.30
2019-05-15T11:19:41.614Z,31.20
2019-05-15T11:22:09.228Z,31.00
2019-05-15T11:24:38.523Z,31.10
2019-05-15T11:27:09.734Z,31.00
2019-05-15T11:29:35.562Z,30.70
2019-05-15T11:32:03.055Z,30.10
2019-05-15T11:34:30.701Z,30.00
2019-05-15T11:36:59.318Z,30.30
2019-05-15T11:39:28.785Z,30.20
2019-05-15T11:41:56.324Z,30.30
2019-05-15T11:44:23.778Z,30.80
2019-05-15T11:46:51.101Z,30.90
2019-05-15T11:49:18.814Z,30.20
2019-05-15T11:51:49.015Z,30.10
2019-05-15T11:54:15.581Z,30.30
2019-05-15T11:56:43.074Z,30.00
2019-05-15T11:59:12.284Z,29.80
2019-05-15T12:01:39.681Z,29.40
2019-05-15T12:04:09.241Z,29.60
2019-05-15T12:06:38.526Z,29.80
2019-05-15T12:09:08.932Z,29.70
2019-05-15T12:11:37.941Z,29.70
2019-05-15T12:14:05.229Z,29.50
2019-05-15T12:16:36.016Z,29.70
2019-05-15T12:19:08.888Z,29.80
2019-05-15T12:21:31.384Z,29.90
2019-05-15T12:23:59.188Z,29.90
2019-05-15T12:26:29.187Z,29.70
2019-05-15T12:28:58.941Z,29.40
2019-05-15T12:31:45.550Z,29.40
2019-05-15T12:34:14.129Z,29.40
2019-05-15T12:36:53.084Z,29.10
2019-05-15T12:39:20.691Z,29.30
2019-05-15T12:59:39.675Z,29.60
2019-05-15T13:02:02.045Z,29.60
2019-05-15T13:04:29.646Z,29.50
2019-05-15T13:07:12.284Z,29.60
2019-05-15T13:09:27.731Z,29.70
2019-05-15T13:11:55.356Z,29.90
2019-05-15T13:14:23.009Z,29.90
2019-05-15T13:16:50.521Z,29.80
2019-05-15T13:19:18.954Z,29.90
2019-05-15T13:21:51.409Z,30.30
2019-05-15T13:24:15.986Z,30.00
2019-05-15T13:26:43.476Z,30.00
2019-05-15T13:29:10.986Z,30.00
2019-05-15T13:31:39.609Z,30.00
2019-05-15T13:34:08.140Z,30.00
2019-05-15T13:36:35.776Z,30.00
2019-05-15T13:39:05.473Z,30.00
2019-05-15T13:41:32.878Z,30.00
2019-05-15T13:44:00.430Z,30.00
2019-05-15T13:46:29.109Z,29.90
2019-05-15T13:48:59.165Z,30.00
2019-05-15T13:51:28.777Z,30.10
2019-05-15T13:53:56.601Z,30.30
2019-05-15T13:56:23.973Z,30.30
2019-05-15T13:58:51.525Z,30.30
2019-05-15T14:01:19.649Z,30.20
2019-05-15T14:03:48.294Z,30.00
2019-05-15T14:06:16.046Z,30.00
2019-05-15T14:08:43.753Z,30.10
2019-05-15T14:11:11.172Z,30.20
2019-05-15T14:13:39.472Z,30.30
2019-05-15T14:16:09.405Z,30.10
2019-05-15T14:18:38.919Z,30.00
2019-05-15T14:21:05.657Z,30.00
2019-05-15T14:23:33.185Z,30.30
2019-05-15T14:26:15.214Z,30.40
2019-05-15T14:28:30.400Z,30.60
2019-05-15T14:30:58.639Z,30.30
2019-05-15T14:33:28.981Z,30.00
2019-05-15T14:35:57.759Z,30.10
2019-05-15T14:38:25.326Z,30.30
2019-05-15T14:40:52.773Z,30.30
2019-05-15T14:43:20.222Z,30.30
2019-05-15T14:45:48.846Z,30.20
2019-05-15T14:48:18.893Z,30.90
2019-05-15T14:50:49.298Z,30.50
2019-05-15T14:53:18.661Z,30.60
2019-05-15T14:55:49.180Z,30.60
2019-05-15T14:58:19.888Z,30.70
2019-05-15T15:00:49.738Z,30.60
2019-05-15T15:03:18.258Z,31.10
2019-05-15T15:05:44.994Z,30.60
2019-05-15T15:08:21.775Z,30.80
2019-05-15T15:10:42.720Z,30.90
2019-05-15T15:13:10.173Z,30.80
2019-05-15T15:15:38.078Z,30.70
2019-05-15T15:18:08.017Z,31.00
2019-05-15T15:20:35.363Z,31.10
2019-05-15T15:23:03.009Z,31.70
2019-05-15T15:25:30.415Z,31.00
2019-05-15T15:27:58.736Z,31.00
2019-05-15T15:30:26.253Z,31.10
2019-05-15T15:32:53.898Z,31.20
2019-05-15T15:35:21.510Z,31.40
2019-05-15T15:37:49.090Z,31.50
2019-05-15T15:40:18.889Z,31.30
2019-05-15T15:42:48.536Z,31.70
2019-05-15T15:45:19.338Z,31.90
2019-05-15T15:47:48.145Z,31.00
2019-05-15T15:50:18.315Z,31.30
2019-05-15T15:52:45.790Z,31.70
2019-05-15T15:55:18.440Z,32.10
2019-05-15T15:57:48.505Z,32.20
2019-05-15T16:00:18.170Z,32.30
2019-05-15T16:02:44.819Z,32.40
2019-05-15T16:05:15.818Z,32.60
2019-05-15T16:07:43.603Z,32.80
2019-05-15T16:10:11.142Z,33.10
2019-05-15T16:12:39.093Z,33.50
2019-05-15T16:15:08.800Z,33.90
2019-05-15T16:17:38.445Z,33.50
2019-05-15T16:20:07.369Z,32.80
2019-05-15T16:22:37.912Z,30.70
2019-05-15T16:25:05.117Z,30.00
2019-05-15T16:27:33.850Z,30.10
2019-05-15T16:30:01.806Z,30.10
2019-05-15T16:32:30.517Z,28.60
2019-05-15T16:34:58.622Z,27.50
2019-05-15T16:37:26.556Z,27.20
2019-05-15T16:39:54.095Z,26.70
2019-05-15T16:42:21.598Z,26.60
2019-05-15T16:44:49.186Z,26.30
2019-05-15T16:47:18.456Z,27.80
2019-05-15T16:49:48.508Z,28.30
2019-05-15T16:52:16.227Z,29.00
2019-05-15T16:54:45.607Z,29.60
2019-05-15T16:57:14.158Z,30.60
2019-05-15T17:00:01.702Z,30.70
2019-05-15T17:02:32.013Z,30.70
2019-05-15T17:04:59.026Z,31.20
2019-05-15T17:07:28.742Z,31.00
2019-05-15T17:09:58.521Z,31.10
2019-05-15T17:12:27.789Z,29.70
2019-05-15T17:14:58.099Z,28.30
2019-05-15T17:17:33.384Z,27.30
2019-05-15T17:20:02.067Z,26.40
2019-05-15T17:22:30.036Z,26.50
2019-05-15T17:24:58.343Z,27.20
2019-05-15T17:27:26.101Z,27.40
2019-05-15T17:29:53.678Z,27.90
2019-05-15T17:32:21.124Z,28.50
2019-05-15T17:34:48.900Z,29.00
2019-05-15T17:37:18.250Z,29.40
2019-05-15T17:39:48.382Z,29.40
2019-05-15T17:42:17.963Z,29.60
2019-05-15T17:44:44.852Z,29.70
2019-05-15T17:47:12.541Z,29.70
2019-05-15T17:49:41.856Z,29.80
2019-05-15T17:52:09.584Z,29.90
2019-05-15T17:54:38.031Z,30.00
2019-05-15T17:57:09.031Z,30.10
2019-05-15T17:59:37.937Z,30.40
2019-05-15T18:02:08.401Z,30.60
2019-05-15T18:04:35.305Z,30.90
2019-05-15T18:07:03.142Z,30.60
2019-05-15T18:09:30.856Z,30.90
2019-05-15T18:11:58.781Z,31.20
2019-05-15T18:14:27.607Z,31.50
2019-05-15T18:16:55.241Z,31.90
2019-05-15T18:19:24.017Z,32.20
2019-05-15T18:21:51.724Z,32.70
2019-05-15T18:24:19.197Z,32.60
2019-05-15T18:26:48.829Z,32.30
2019-05-15T18:29:16.214Z,32.10
2019-05-15T18:31:44.182Z,31.70
2019-05-15T18:34:11.789Z,31.70
2019-05-15T18:36:39.407Z,31.70
2019-05-15T18:39:08.458Z,31.70
2019-05-15T18:41:37.790Z,31.80
2019-05-15T18:44:05.707Z,31.80
2019-05-15T18:46:33.321Z,31.70
2019-05-15T18:49:01.273Z,31.80
2019-05-15T18:51:28.729Z,31.80
2019-05-15T18:53:58.791Z,31.60
2019-05-15T18:56:29.723Z,31.50
2019-05-15T18:58:57.793Z,31.50
2019-05-15T19:01:28.272Z,31.20
2019-05-15T19:03:58.083Z,31.20
2019-05-15T19:06:25.351Z,31.20
2019-05-15T19:08:53.299Z,31.10
2019-05-15T19:11:20.969Z,31.20
2019-05-15T19:13:48.613Z,31.20
2019-05-15T19:16:16.071Z,32.00
2019-05-15T19:18:44.575Z,31.20
2019-05-15T19:21:15.625Z,31.10
2019-05-15T19:23:43.454Z,31.00
2019-05-15T19:26:11.825Z,31.10
2019-05-15T19:28:39.706Z,30.90
2019-05-15T19:31:08.939Z,31.10
2019-05-15T19:33:40.351Z,31.20
2019-05-15T19:36:07.770Z,31.30
2019-05-15T19:38:37.571Z,31.50
2019-05-15T19:41:06.677Z,31.70
2019-05-15T19:43:34.818Z,31.90
2019-05-15T19:46:02.649Z,32.10
2019-05-15T19:48:30.043Z,33.00
2019-05-15T19:50:58.253Z,32.60
2019-05-15T19:53:28.191Z,32.90
2019-05-15T19:55:57.459Z,33.20
2019-05-15T19:58:24.842Z,33.30
2019-05-15T20:00:55.563Z,33.50
2019-05-15T20:03:23.094Z,33.70
2019-05-15T20:05:51.857Z,33.70
2019-05-15T20:08:19.815Z,33.70
2019-05-15T20:10:48.702Z,33.70
2019-05-15T20:13:18.359Z,33.80
2019-05-15T20:15:48.463Z,33.70
2019-05-15T20:18:18.261Z,33.90
2019-05-15T20:20:47.758Z,34.00
2019-05-15T20:23:18.249Z,34.10
2019-05-15T20:25:45.969Z,34.20
2019-05-15T20:28:13.691Z,34.30
2019-05-15T20:30:43.387Z,34.50
2019-05-15T20:33:11.278Z,34.80
2019-05-15T20:35:38.937Z,34.90
2019-05-15T20:38:06.329Z,35.20
2019-05-15T20:40:33.844Z,35.30
2019-05-15T20:43:01.437Z,35.60
2019-05-15T20:45:29.357Z,35.80
2019-05-15T20:47:58.478Z,36.00
2019-05-15T20:50:28.226Z,36.20
2019-05-15T20:52:58.577Z,36.30
2019-05-15T20:55:25.525Z,36.50
2019-05-15T20:57:53.153Z,36.50
2019-05-15T21:00:20.773Z,37.10
2019-05-15T21:02:48.829Z,36.50
2019-05-15T21:05:18.376Z,36.80
2019-05-15T21:07:48.078Z,36.80
2019-05-15T21:10:15.473Z,36.90
2019-05-15T21:12:42.980Z,37.10
2019-05-15T21:15:11.014Z,37.30
2019-05-15T21:17:45.653Z,37.40
2019-05-15T21:20:14.469Z,37.60
2019-05-15T21:22:42.579Z,37.60
2019-05-15T21:25:11.002Z,37.80
2019-05-15T21:27:42.455Z,38.00
2019-05-15T21:30:09.057Z,37.70
2019-05-15T21:32:38.341Z,38.10
2019-05-15T21:35:08.771Z,38.10
2019-05-15T21:37:35.313Z,38.30
2019-05-15T21:40:03.223Z,38.20
2019-05-15T21:42:30.924Z,38.30
2019-05-15T21:44:58.366Z,38.40
2019-05-15T21:47:28.078Z,38.50
2019-05-15T21:49:55.509Z,38.50
2019-05-15T21:52:22.967Z,38.60
2019-05-15T21:54:50.613Z,38.60
2019-05-15T21:57:32.419Z,38.70
2019-05-15T21:59:47.618Z,38.70
2019-05-15T22:02:15.003Z,38.80
2019-05-15T22:04:54.793Z,39.00
2019-05-15T22:07:17.805Z,38.90
2019-05-15T22:09:45.942Z,39.00
2019-05-15T22:12:13.610Z,38.90
2019-05-15T22:14:41.150Z,39.00
2019-05-15T22:17:09.218Z,39.10
2019-05-15T22:19:38.549Z,39.00
2019-05-15T22:22:08.628Z,39.10
2019-05-15T22:24:37.765Z,39.20
2019-05-15T22:27:05.234Z,39.20
2019-05-15T22:29:32.786Z,39.20
2019-05-15T22:32:00.277Z,39.30
2019-05-15T22:34:28.844Z,39.20
2019-05-15T22:36:58.262Z,39.20
2019-05-15T22:39:27.947Z,39.20
2019-05-15T22:41:55.792Z,39.00
2019-05-15T22:44:23.545Z,39.00
2019-05-15T22:46:51.349Z,38.90
2019-05-15T22:49:19.202Z,38.80
2019-05-15T22:51:48.631Z,38.80
2019-05-15T22:54:16.469Z,38.90
2019-05-15T22:56:44.154Z,39.00
2019-05-15T22:59:11.882Z,38.80
2019-05-15T23:01:39.734Z,39.00
2019-05-15T23:04:09.010Z,39.30
2019-05-15T23:06:38.816Z,39.50
2019-05-15T23:09:06.722Z,39.60
2019-05-15T23:11:34.425Z,39.80
2019-05-15T23:14:02.099Z,40.70
2019-05-15T23:16:29.907Z,40.40
2019-05-15T23:18:58.780Z,40.50
2019-05-15T23:21:28.634Z,40.70
2019-05-15T23:23:55.855Z,40.90
2019-05-15T23:26:23.732Z,41.00
2019-05-15T23:28:51.198Z,41.20
2019-05-15T23:31:19.021Z,41.20
2019-05-15T23:33:48.178Z,41.50
2019-05-15T23:36:17.891Z,41.60
2019-05-15T23:38:47.781Z,41.60
2019-05-15T23:41:15.541Z,41.70
2019-05-15T23:43:43.017Z,41.90
2019-05-15T23:46:10.662Z,42.60
2019-05-15T23:48:38.327Z,42.10
2019-05-15T23:51:08.554Z,42.10
2019-05-15T23:53:36.427Z,42.20
2019-05-15T23:56:03.985Z,42.20
2019-05-15T23:58:31.754Z,42.10
